createdAt,value
2018-12-01T00:01:51.275Z,5.74
2018-12-01T00:06:53.713Z,5.75
2018-12-01T00:11:56.161Z,5.70
2018-12-01T00:16:58.555Z,5.70
2018-12-01T00:22:01.158Z,5.73
2018-12-01T00:27:03.673Z,5.78
2018-12-01T00:32:06.050Z,5.78
2018-12-01T00:37:08.434Z,5.76
2018-12-01T00:42:10.950Z,5.74
2018-12-01T00:47:13.350Z,5.73
2018-12-01T00:52:16.887Z,5.70
2018-12-01T00:57:19.387Z,5.68
2018-12-01T01:02:27.329Z,5.68
2018-12-01T01:07:29.795Z,5.68
2018-12-01T01:12:32.216Z,5.70
2018-12-01T01:17:35.371Z,5.66
2018-12-01T01:22:37.925Z,5.54
2018-12-01T01:27:40.429Z,5.53
2018-12-01T01:32:42.892Z,5.54
2018-12-01T01:37:45.362Z,5.52
2018-12-01T01:42:47.822Z,5.50
2018-12-01T01:47:50.303Z,5.52
2018-12-01T01:52:52.791Z,5.49
2018-12-01T01:57:55.189Z,5.52
2018-12-01T02:02:57.666Z,5.47
2018-12-01T02:08:00.142Z,5.47
2018-12-01T02:13:02.711Z,5.42
2018-12-01T02:18:05.754Z,5.38
2018-12-01T02:23:08.344Z,5.39
2018-12-01T02:28:10.774Z,5.38
2018-12-01T02:33:13.189Z,5.37
2018-12-01T02:38:15.700Z,5.38
2018-12-01T02:43:18.226Z,5.37
2018-12-01T02:48:20.722Z,5.35
2018-12-01T02:53:23.408Z,5.39
2018-12-01T02:58:25.866Z,5.34
2018-12-01T03:03:28.641Z,5.32
2018-12-01T03:08:31.059Z,5.25
2018-12-01T03:13:33.622Z,5.27
2018-12-01T03:18:36.034Z,5.25
2018-12-01T03:23:38.704Z,5.23
2018-12-01T03:28:41.084Z,5.19
2018-12-01T03:33:43.619Z,5.17
2018-12-01T03:38:46.002Z,5.17
2018-12-01T03:43:48.745Z,5.12
2018-12-01T03:48:51.816Z,5.08
2018-12-01T03:53:54.441Z,5.04
2018-12-01T03:58:57.226Z,5.01
2018-12-01T04:03:59.718Z,4.93
2018-12-01T04:09:07.727Z,4.79
2018-12-01T04:14:10.234Z,4.81
2018-12-01T04:19:12.726Z,4.85
2018-12-01T04:24:15.359Z,4.93
2018-12-01T04:29:17.846Z,4.96
2018-12-01T04:34:22.380Z,5.02
2018-12-01T04:39:24.886Z,5.01
2018-12-01T04:44:27.594Z,4.97
2018-12-01T04:49:30.002Z,5.00
2018-12-01T04:54:32.542Z,4.93
2018-12-01T04:59:35.281Z,5.01
2018-12-01T05:04:37.730Z,5.01
2018-12-01T05:09:40.154Z,5.00
2018-12-01T05:14:42.600Z,5.02
2018-12-01T05:19:45.185Z,5.02
2018-12-01T05:24:47.618Z,5.09
2018-12-01T05:29:50.006Z,5.06
2018-12-01T05:34:52.430Z,5.05
2018-12-01T05:39:54.890Z,5.08
2018-12-01T05:44:57.290Z,5.14
2018-12-01T05:49:59.753Z,5.08
2018-12-01T05:55:02.362Z,5.11
2018-12-01T06:00:13.566Z,5.12
2018-12-01T06:05:16.015Z,5.12
2018-12-01T06:10:20.374Z,5.15
2018-12-01T06:15:22.883Z,5.21
2018-12-01T06:20:26.234Z,5.24
2018-12-01T06:25:28.710Z,5.25
2018-12-01T06:30:31.094Z,5.29
2018-12-01T06:35:33.538Z,5.32
2018-12-01T06:40:35.983Z,5.36
2018-12-01T06:45:38.511Z,5.42
2018-12-01T06:50:41.078Z,5.48
2018-12-01T06:55:43.688Z,5.48
2018-12-01T07:00:46.193Z,5.51
2018-12-01T07:05:48.661Z,5.54
2018-12-01T07:10:51.270Z,5.64
2018-12-01T07:15:53.742Z,5.70
2018-12-01T07:20:56.188Z,5.49
2018-12-01T07:25:58.886Z,5.50
2018-12-01T07:31:01.324Z,5.52
2018-12-01T07:36:03.740Z,5.48
2018-12-01T07:41:06.197Z,5.52
2018-12-01T07:46:08.705Z,5.51
2018-12-01T07:51:11.264Z,5.53
2018-12-01T07:56:13.742Z,5.53
2018-12-01T08:01:16.234Z,5.55
2018-12-01T08:06:18.627Z,5.60
2018-12-01T08:11:21.111Z,5.67
2018-12-01T08:16:23.558Z,5.70
2018-12-01T08:21:26.044Z,5.75
2018-12-01T08:26:28.505Z,5.78
2018-12-01T08:31:31.211Z,5.84
2018-12-01T08:36:33.611Z,5.85
2018-12-01T08:41:36.294Z,5.94
2018-12-01T08:46:38.784Z,6.01
2018-12-01T08:51:41.247Z,6.07
2018-12-01T08:56:43.820Z,6.12
2018-12-01T09:01:46.327Z,6.17
2018-12-01T09:06:48.834Z,6.23
2018-12-01T09:11:51.237Z,6.22
2018-12-01T09:17:03.043Z,6.31
2018-12-01T09:22:05.619Z,6.39
2018-12-01T09:27:10.306Z,6.46
2018-12-01T09:32:13.029Z,6.61
2018-12-01T09:37:15.593Z,6.67
2018-12-01T09:42:18.062Z,6.76
2018-12-01T09:47:20.674Z,6.83
2018-12-01T09:52:23.215Z,6.92
2018-12-01T09:57:25.712Z,6.98
2018-12-01T10:02:28.209Z,6.99
2018-12-01T10:07:31.003Z,6.96
2018-12-01T10:12:33.523Z,6.99
2018-12-01T10:17:36.454Z,6.98
2018-12-01T10:22:40.128Z,7.11
2018-12-01T10:27:42.827Z,7.09
2018-12-01T10:32:46.851Z,7.09
2018-12-01T10:37:55.611Z,7.19
2018-12-01T10:42:58.154Z,7.36
2018-12-01T10:48:00.867Z,7.36
2018-12-01T10:53:03.796Z,7.43
2018-12-01T10:58:10.407Z,7.36
2018-12-01T11:03:18.865Z,7.32
2018-12-01T11:08:21.551Z,7.30
2018-12-01T11:13:24.110Z,7.33
2018-12-01T11:18:26.567Z,7.40
2018-12-01T11:23:29.113Z,7.50
2018-12-01T11:28:31.631Z,7.47
2018-12-01T11:33:34.157Z,7.60
2018-12-01T11:38:36.608Z,7.79
2018-12-01T11:43:39.146Z,7.92
2018-12-01T11:48:41.665Z,8.02
2018-12-01T11:53:44.270Z,8.01
2018-12-01T11:58:46.719Z,8.06
2018-12-01T12:03:49.320Z,8.23
2018-12-01T12:08:51.870Z,8.20
2018-12-01T12:13:54.430Z,8.25
2018-12-01T12:18:57.008Z,8.31
2018-12-01T12:23:59.538Z,8.27
2018-12-01T12:29:02.063Z,8.28
2018-12-01T12:34:04.744Z,8.33
2018-12-01T12:39:07.366Z,8.35
2018-12-01T12:44:09.869Z,8.37
2018-12-01T12:49:12.450Z,8.35
2018-12-01T12:54:14.939Z,8.51
2018-12-01T12:59:17.481Z,8.42
2018-12-01T13:04:20.067Z,8.31
2018-12-01T13:09:22.544Z,8.36
2018-12-01T13:14:25.126Z,8.46
2018-12-01T13:19:27.697Z,8.59
2018-12-01T13:24:30.283Z,8.51
2018-12-01T13:29:32.852Z,8.44
2018-12-01T13:34:35.413Z,8.38
2018-12-01T13:39:37.905Z,8.44
2018-12-01T13:44:47.126Z,8.44
2018-12-01T13:49:50.314Z,8.41
2018-12-01T13:54:52.722Z,8.43
2018-12-01T13:59:55.182Z,8.50
2018-12-01T14:04:57.664Z,8.47
2018-12-01T14:10:00.198Z,8.41
2018-12-01T14:15:02.790Z,8.53
2018-12-01T14:20:05.811Z,8.39
2018-12-01T14:25:09.256Z,8.34
2018-12-01T14:30:13.850Z,8.22
2018-12-01T14:35:22.291Z,8.26
2018-12-01T14:40:25.424Z,8.25
2018-12-01T14:45:31.881Z,8.08
2018-12-01T14:50:35.242Z,8.00
2018-12-01T14:55:37.883Z,8.00
2018-12-01T15:00:48.816Z,8.13
2018-12-01T15:05:51.591Z,8.20
2018-12-01T15:10:54.315Z,7.97
2018-12-01T15:15:57.090Z,7.97
2018-12-01T15:21:02.101Z,7.84
2018-12-01T15:26:06.320Z,7.85
2018-12-01T15:31:09.835Z,7.79
2018-12-01T15:36:12.442Z,7.69
2018-12-01T15:41:15.184Z,7.68
2018-12-01T15:46:18.255Z,7.67
2018-12-01T15:51:21.046Z,7.77
2018-12-01T15:56:23.779Z,7.73
2018-12-01T16:01:26.787Z,7.74
2018-12-01T16:06:29.903Z,7.57
2018-12-01T16:11:33.317Z,7.56
2018-12-01T16:16:37.167Z,7.62
2018-12-01T16:21:39.808Z,7.69
2018-12-01T16:26:43.134Z,7.59
2018-12-01T16:31:47.849Z,7.64
2018-12-01T16:36:51.256Z,7.50
2018-12-01T16:41:53.739Z,7.62
2018-12-01T16:46:56.306Z,7.58
2018-12-01T16:51:58.833Z,7.59
2018-12-01T16:57:01.326Z,7.63
2018-12-01T17:02:04.003Z,7.59
2018-12-01T17:07:06.466Z,7.62
2018-12-01T17:12:08.873Z,7.58
2018-12-01T17:17:11.605Z,7.52
2018-12-01T17:22:14.070Z,7.49
2018-12-01T17:27:16.779Z,7.50
2018-12-01T17:32:19.233Z,7.55
2018-12-01T17:37:21.766Z,7.63
2018-12-01T17:42:24.438Z,7.64
2018-12-01T17:47:26.773Z,7.62
2018-12-01T17:52:29.565Z,7.69
2018-12-01T17:57:31.994Z,7.81
2018-12-01T18:02:34.493Z,7.89
2018-12-01T18:07:37.461Z,7.90
2018-12-01T18:12:40.354Z,8.02
2018-12-01T18:17:42.734Z,8.04
2018-12-01T18:22:56.194Z,8.00
2018-12-01T18:27:59.408Z,7.94
2018-12-01T18:33:18.637Z,7.94
2018-12-01T18:38:21.156Z,7.92
2018-12-01T18:43:23.799Z,7.88
2018-12-01T18:48:26.446Z,7.88
2018-12-01T18:53:29.032Z,7.84
2018-12-01T18:58:31.489Z,7.82
2018-12-01T19:03:35.414Z,7.83
2018-12-01T19:08:37.929Z,7.85
2018-12-01T19:13:40.471Z,7.80
2018-12-01T19:18:43.734Z,7.81
2018-12-01T19:23:46.225Z,7.72
2018-12-01T19:28:48.705Z,7.73
2018-12-01T19:33:51.182Z,7.71
2018-12-01T19:38:53.802Z,7.73
2018-12-01T19:43:56.207Z,7.70
2018-12-01T19:48:58.618Z,7.78
2018-12-01T19:54:01.400Z,7.75
2018-12-01T19:59:03.894Z,7.74
2018-12-01T20:04:06.914Z,7.78
2018-12-01T20:09:09.370Z,7.79
2018-12-01T20:14:14.673Z,7.77
2018-12-01T20:19:17.096Z,7.72
2018-12-01T20:24:19.781Z,7.69
2018-12-01T20:29:22.140Z,7.74
2018-12-01T20:34:24.907Z,7.68
2018-12-01T20:39:33.668Z,7.64
2018-12-01T20:44:36.685Z,7.66
2018-12-01T20:49:39.584Z,7.61
2018-12-01T20:54:45.006Z,7.65
2018-12-01T20:59:47.592Z,7.65
2018-12-01T21:04:50.075Z,7.74
2018-12-01T21:09:52.743Z,7.73
2018-12-01T21:14:55.158Z,7.78
2018-12-01T21:19:57.600Z,7.86
2018-12-01T21:25:00.450Z,7.97
2018-12-01T21:30:03.271Z,7.98
2018-12-01T21:35:07.924Z,8.08
2018-12-01T21:40:13.314Z,8.16
2018-12-01T21:45:17.007Z,8.19
2018-12-01T21:50:20.766Z,8.18
2018-12-01T21:55:23.902Z,8.32
2018-12-01T22:00:30.966Z,8.29
2018-12-01T22:05:43.027Z,8.28
2018-12-01T22:10:49.342Z,8.27
2018-12-01T22:15:51.817Z,8.29
2018-12-01T22:20:54.317Z,8.28
2018-12-01T22:25:56.780Z,8.32
2018-12-01T22:30:59.521Z,8.32
2018-12-01T22:36:01.970Z,8.32
2018-12-01T22:41:04.773Z,8.25
2018-12-01T22:46:07.674Z,8.27
2018-12-01T22:51:10.111Z,8.27
2018-12-01T22:56:12.716Z,8.22
2018-12-01T23:01:15.349Z,8.35
2018-12-01T23:06:17.914Z,8.27
2018-12-01T23:11:20.327Z,8.29
2018-12-01T23:16:23.052Z,8.27
2018-12-01T23:21:25.988Z,8.29
2018-12-01T23:26:28.507Z,8.13
2018-12-01T23:31:31.273Z,7.96
2018-12-01T23:36:34.200Z,7.95
2018-12-01T23:41:36.672Z,7.95
2018-12-01T23:46:39.142Z,7.91
2018-12-01T23:51:41.701Z,7.91
2018-12-01T23:56:44.205Z,7.95
